Time;durP1;ratioP1;P1;durP2;ratioP2;P2;SDS_P1;SDS_P2;PMS_P1;PMS_P2;Temp;Humidity;BMP_temperature;BMP_pressure;BME280_temperature;BME280_humidity;BME280_pressure;Samples;Min_cycle;Max_cycle;Signal;HPM_P1;HPM_P2
2023/03/31 00:00:10;;;;;;;9.23;2.60;;;;;;;;;;4983211;28;20050;-72
2023/03/31 00:02:40;;;;;;;7.90;2.15;;;;;;;;;;4983115;28;20029;-74
2023/03/31 00:05:07;;;;;;;9.02;2.22;;;;;;;;;;4982842;28;20042;-74
2023/03/31 00:07:36;;;;;;;8.57;2.40;;;;;;;;;;4982842;28;20034;-75
2023/03/31 00:10:03;;;;;;;9.43;2.20;;;;;;;;;;4982943;28;20142;-74
2023/03/31 00:12:29;;;;;;;9.65;2.35;;;;;;;;;;4982898;28;20315;-74
2023/03/31 00:14:54;;;;;;;9.63;2.20;;;;;;;;;;4982947;28;20061;-74
2023/03/31 00:17:20;;;;;;;11.90;2.58;;;;;;;;;;4982947;28;20258;-74
2023/03/31 00:19:48;;;;;;;7.75;2.20;;;;;;;;;;4982919;28;20094;-76
2023/03/31 00:22:26;;;;;;;6.93;1.98;;;;;;;;;;4982818;28;20054;-75
2023/03/31 00:24:52;;;;;;;8.27;2.20;;;;;;;;;;4982955;28;20034;-76
2023/03/31 00:27:17;;;;;;;9.38;2.05;;;;;;;;;;4982310;28;20035;-75
2023/03/31 00:29:44;;;;;;;10.38;2.20;;;;;;;;;;4982598;28;20042;-74
2023/03/31 00:32:10;;;;;;;10.45;2.17;;;;;;;;;;4982658;28;20042;-75
2023/03/31 00:34:36;;;;;;;7.57;2.28;;;;;;;;;;4981417;28;20019;-72
2023/03/31 00:37:02;;;;;;;8.55;2.10;;;;;;;;;;4982580;28;20038;-73
2023/03/31 00:39:32;;;;;;;8.35;1.92;;;;;;;;;;4982603;28;20318;-75
2023/03/31 00:41:58;;;;;;;10.80;2.30;;;;;;;;;;4982715;28;20270;-75
2023/03/31 00:44:24;;;;;;;7.90;1.90;;;;;;;;;;4981805;28;20042;-74
2023/03/31 00:47:19;;;;;;;6.45;2.40;;;;;;;;;;4982029;28;20022;-75
2023/03/31 00:49:53;;;;;;;7.47;2.08;;;;;;;;;;4981915;28;20048;-75
2023/03/31 00:52:23;;;;;;;12.27;2.20;;;;;;;;;;4982386;28;20035;-74
2023/03/31 00:55:04;;;;;;;9.48;2.47;;;;;;;;;;4982660;28;20046;-74
2023/03/31 00:57:32;;;;;;;7.47;2.17;;;;;;;;;;4982382;28;20218;-73
2023/03/31 01:00:02;;;;;;;9.00;1.95;;;;;;;;;;4981773;28;20027;-73
2023/03/31 01:02:27;;;;;;;7.57;2.25;;;;;;;;;;4981614;28;20019;-74
2023/03/31 01:05:00;;;;;;;8.75;1.98;;;;;;;;;;4981037;28;20186;-74
2023/03/31 01:07:38;;;;;;;6.03;1.98;;;;;;;;;;4981103;28;20023;-75
2023/03/31 01:10:05;;;;;;;8.05;2.00;;;;;;;;;;4981481;28;20026;-72
2023/03/31 01:12:33;;;;;;;9.30;1.80;;;;;;;;;;4981174;28;20018;-74
2023/03/31 01:15:00;;;;;;;6.15;2.05;;;;;;;;;;4981790;28;20030;-74
2023/03/31 01:17:28;;;;;;;7.47;2.03;;;;;;;;;;4982544;28;20035;-73
2023/03/31 01:20:20;;;;;;;7.07;1.98;;;;;;;;;;4982375;28;20037;-72
2023/03/31 01:23:00;;;;;;;7.90;2.20;;;;;;;;;;4981942;28;20250;-75
2023/03/31 01:25:38;;;;;;;;;;;;;;;;;;4982394;28;20023;-70
2023/03/31 01:28:28;;;;;;;8.05;1.90;;;;;;;;;;4981028;28;20262;-73
2023/03/31 01:30:56;;;;;;;7.03;2.13;;;;;;;;;;4980497;28;20157;-74
2023/03/31 01:33:53;;;;;;;9.75;2.00;;;;;;;;;;4981231;28;20070;-73
2023/03/31 01:36:41;;;;;;;8.82;1.88;;;;;;;;;;4971686;28;20241;-75
2023/03/31 01:39:31;;;;;;;7.45;1.77;;;;;;;;;;4981009;28;20030;-72
2023/03/31 01:42:18;;;;;;;8.98;2.20;;;;;;;;;;4980626;28;20038;-77
2023/03/31 01:44:55;;;;;;;7.10;1.90;;;;;;;;;;4980655;28;20318;-75
2023/03/31 01:47:39;;;;;;;9.85;2.15;;;;;;;;;;4980639;28;20033;-74
2023/03/31 01:50:15;;;;;;;6.65;1.90;;;;;;;;;;4980981;28;20141;-68
2023/03/31 01:52:48;;;;;;;6.97;2.05;;;;;;;;;;4981302;28;20019;-68
2023/03/31 01:55:24;;;;;;;10.20;2.17;;;;;;;;;;4982782;28;20030;-74
2023/03/31 01:57:59;;;;;;;9.57;2.25;;;;;;;;;;4985395;28;20038;-74
2023/03/31 02:00:32;;;;;;;7.82;2.05;;;;;;;;;;4985110;28;20027;-75
2023/03/31 02:03:06;;;;;;;7.20;2.15;;;;;;;;;;4985193;28;20218;-75
2023/03/31 02:05:36;;;;;;;6.45;1.77;;;;;;;;;;4985011;28;20033;-74
2023/03/31 02:08:08;;;;;;;10.50;1.98;;;;;;;;;;4985241;28;20027;-75
2023/03/31 02:10:34;;;;;;;6.25;1.95;;;;;;;;;;4985170;28;20034;-75
2023/03/31 02:13:01;;;;;;;8.45;1.83;;;;;;;;;;4984742;28;20233;-77
2023/03/31 02:15:31;;;;;;;9.10;2.03;;;;;;;;;;4984996;28;20307;-75
2023/03/31 02:18:00;;;;;;;8.18;2.15;;;;;;;;;;4984986;28;20031;-76
2023/03/31 02:20:28;;;;;;;7.32;1.80;;;;;;;;;;4984996;28;20045;-76
2023/03/31 02:22:55;;;;;;;6.97;2.03;;;;;;;;;;4984683;28;20233;-72
2023/03/31 02:25:31;;;;;;;8.45;1.90;;;;;;;;;;4984924;28;20042;-75
2023/03/31 02:28:07;;;;;;;9.23;1.85;;;;;;;;;;4984911;28;20420;-73
2023/03/31 02:30:53;;;;;;;11.68;2.30;;;;;;;;;;4984322;28;20034;-76
2023/03/31 02:33:18;;;;;;;6.60;2.10;;;;;;;;;;4984922;28;20038;-76
2023/03/31 02:35:44;;;;;;;8.02;1.98;;;;;;;;;;4984626;28;20050;-72
2023/03/31 02:38:10;;;;;;;11.05;2.35;;;;;;;;;;4984709;28;20031;-73
2023/03/31 02:40:36;;;;;;;9.93;2.13;;;;;;;;;;4984742;28;20453;-77
2023/03/31 02:43:01;;;;;;;8.40;2.00;;;;;;;;;;4984746;28;20035;-76
2023/03/31 02:45:45;;;;;;;8.80;2.25;;;;;;;;;;4984255;28;20267;-75
2023/03/31 02:48:34;;;;;;;8.93;2.10;;;;;;;;;;4984138;28;20312;-76
2023/03/31 02:51:18;;;;;;;8.52;2.50;;;;;;;;;;4981728;28;20101;-76
2023/03/31 02:54:09;;;;;;;7.97;2.40;;;;;;;;;;4983996;28;20113;-75
2023/03/31 02:56:41;;;;;;;10.82;2.10;;;;;;;;;;4980278;28;20043;-75
2023/03/31 02:59:09;;;;;;;6.90;2.00;;;;;;;;;;4983170;28;20057;-75
2023/03/31 03:01:43;;;;;;;6.40;2.05;;;;;;;;;;4983283;28;20035;-75
2023/03/31 03:04:40;;;;;;;9.68;2.40;;;;;;;;;;4983774;28;20343;-75
2023/03/31 03:07:12;;;;;;;5.97;2.20;;;;;;;;;;4982477;28;20334;-75
2023/03/31 03:10:12;;;;;;;6.40;1.98;;;;;;;;;;4982419;28;20037;-76
2023/03/31 03:13:06;;;;;;;10.93;2.40;;;;;;;;;;4983322;28;20026;-76
2023/03/31 03:15:48;;;;;;;6.72;2.05;;;;;;;;;;4983116;28;20222;-76
2023/03/31 03:18:14;;;;;;;9.02;2.03;;;;;;;;;;4983739;28;20467;-76
2023/03/31 03:20:42;;;;;;;8.43;2.42;;;;;;;;;;4983012;28;20041;-75
2023/03/31 03:23:07;;;;;;;9.85;2.25;;;;;;;;;;4983048;28;20042;-75
2023/03/31 03:25:34;;;;;;;9.40;2.20;;;;;;;;;;4983374;28;20030;-75
2023/03/31 03:27:59;;;;;;;8.48;2.17;;;;;;;;;;4983578;28;20042;-75
2023/03/31 03:30:25;;;;;;;8.95;2.10;;;;;;;;;;4983768;28;20026;-75
2023/03/31 03:32:50;;;;;;;6.78;2.20;;;;;;;;;;4983800;28;20089;-75
2023/03/31 03:35:16;;;;;;;11.18;2.15;;;;;;;;;;4983682;28;20018;-75
2023/03/31 03:37:41;;;;;;;8.20;2.25;;;;;;;;;;4983108;28;20338;-74
2023/03/31 03:40:07;;;;;;;8.73;2.20;;;;;;;;;;4983589;28;20027;-75
2023/03/31 03:42:34;;;;;;;7.95;2.15;;;;;;;;;;4982948;28;20026;-75
2023/03/31 03:45:00;;;;;;;10.35;2.20;;;;;;;;;;4983427;28;20057;-76
2023/03/31 03:47:26;;;;;;;11.25;2.20;;;;;;;;;;4983327;28;20222;-73
2023/03/31 03:49:51;;;;;;;7.07;2.10;;;;;;;;;;4983236;28;20043;-75
2023/03/31 03:52:17;;;;;;;8.95;2.28;;;;;;;;;;4983137;28;20100;-75
2023/03/31 03:54:42;;;;;;;8.70;2.30;;;;;;;;;;4983436;28;20487;-77
2023/03/31 03:57:08;;;;;;;8.82;2.28;;;;;;;;;;4983259;28;20043;-76
2023/03/31 03:59:33;;;;;;;8.70;2.50;;;;;;;;;;4983230;28;20030;-76
2023/03/31 04:01:58;;;;;;;16.73;2.83;;;;;;;;;;4981641;28;20034;-76
2023/03/31 04:04:24;;;;;;;6.85;2.40;;;;;;;;;;4982962;28;20058;-76
2023/03/31 04:06:49;;;;;;;7.68;2.25;;;;;;;;;;4982192;28;20034;-76
2023/03/31 04:09:15;;;;;;;10.32;2.58;;;;;;;;;;4982295;28;20122;-76
2023/03/31 04:11:40;;;;;;;7.80;2.28;;;;;;;;;;4981584;28;20454;-76
2023/03/31 04:14:05;;;;;;;9.30;2.50;;;;;;;;;;4982487;28;20318;-74
2023/03/31 04:16:33;;;;;;;7.97;2.40;;;;;;;;;;4982608;28;20034;-74
2023/03/31 04:19:03;;;;;;;11.10;2.50;;;;;;;;;;4982509;28;20031;-74
2023/03/31 04:21:29;;;;;;;7.47;2.25;;;;;;;;;;4982703;28;20081;-74
2023/03/31 04:24:00;;;;;;;9.18;2.47;;;;;;;;;;4983003;28;20049;-75
2023/03/31 04:26:30;;;;;;;8.32;2.60;;;;;;;;;;4982835;28;20037;-74
2023/03/31 04:29:00;;;;;;;8.97;2.40;;;;;;;;;;4983018;28;20050;-72
2023/03/31 04:31:26;;;;;;;8.98;2.33;;;;;;;;;;4982498;28;20293;-68
2023/03/31 04:33:53;;;;;;;7.82;2.30;;;;;;;;;;4982409;28;20333;-74
2023/03/31 04:36:18;;;;;;;7.55;2.30;;;;;;;;;;4982634;28;20035;-72
2023/03/31 04:38:55;;;;;;;10.60;2.40;;;;;;;;;;4982524;28;20038;-75
2023/03/31 04:41:21;;;;;;;8.65;2.20;;;;;;;;;;4982550;28;20041;-75
2023/03/31 04:43:47;;;;;;;9.45;2.60;;;;;;;;;;4982533;28;20037;-72
2023/03/31 04:46:12;;;;;;;8.68;2.47;;;;;;;;;;4982258;28;20030;-70
2023/03/31 04:48:38;;;;;;;14.07;2.53;;;;;;;;;;4981534;28;20023;-74
2023/03/31 04:51:03;;;;;;;7.82;2.13;;;;;;;;;;4980756;28;20338;-75
2023/03/31 04:53:29;;;;;;;10.35;2.60;;;;;;;;;;4981455;28;20030;-74
2023/03/31 04:55:55;;;;;;;9.73;2.50;;;;;;;;;;4981944;28;20031;-76
2023/03/31 04:58:20;;;;;;;7.03;2.20;;;;;;;;;;4982077;28;20026;-76
2023/03/31 05:00:45;;;;;;;7.80;2.50;;;;;;;;;;4981148;28;20027;-75
2023/03/31 05:03:11;;;;;;;7.75;2.42;;;;;;;;;;4982380;28;20365;-76
2023/03/31 05:05:36;;;;;;;7.30;2.45;;;;;;;;;;4981320;28;20033;-76
2023/03/31 05:08:03;;;;;;;11.82;2.95;;;;;;;;;;4981940;28;20361;-75
2023/03/31 05:10:29;;;;;;;11.32;2.88;;;;;;;;;;4982291;28;20031;-76
2023/03/31 05:12:54;;;;;;;9.95;2.55;;;;;;;;;;4982352;28;20187;-74
2023/03/31 05:15:20;;;;;;;5.60;2.00;;;;;;;;;;4982268;28;20398;-72
2023/03/31 05:17:45;;;;;;;9.75;2.60;;;;;;;;;;4982199;28;20101;-73
2023/03/31 05:20:12;;;;;;;8.52;2.60;;;;;;;;;;4981704;28;20038;-73
2023/03/31 05:22:38;;;;;;;8.32;2.55;;;;;;;;;;4981421;28;20342;-76
2023/03/31 05:25:06;;;;;;;8.95;2.35;;;;;;;;;;4981852;28;20125;-73
2023/03/31 05:27:32;;;;;;;8.93;2.15;;;;;;;;;;4981246;28;20378;-76
2023/03/31 05:29:58;;;;;;;10.18;2.40;;;;;;;;;;4982418;28;20435;-75
2023/03/31 05:32:25;;;;;;;8.85;2.40;;;;;;;;;;5000603;28;20042;-72
2023/03/31 05:34:51;;;;;;;9.70;2.30;;;;;;;;;;4984820;28;20046;-73
2023/03/31 05:37:19;;;;;;;7.53;2.28;;;;;;;;;;4983997;28;20038;-71
2023/03/31 05:39:44;;;;;;;11.07;2.83;;;;;;;;;;4985769;28;20094;-73
2023/03/31 05:42:10;;;;;;;11.02;2.58;;;;;;;;;;4985191;28;20026;-74
2023/03/31 05:44:35;;;;;;;9.60;2.88;;;;;;;;;;4984996;28;20066;-74
2023/03/31 05:47:01;;;;;;;10.70;2.35;;;;;;;;;;4985138;28;20030;-74
2023/03/31 05:49:26;;;;;;;10.30;2.42;;;;;;;;;;4985040;28;20341;-73
2023/03/31 05:51:52;;;;;;;9.55;2.40;;;;;;;;;;4985312;28;20112;-71
2023/03/31 05:54:18;;;;;;;9.93;2.67;;;;;;;;;;4985463;28;20030;-74
2023/03/31 05:56:43;;;;;;;9.57;2.42;;;;;;;;;;4985723;28;20083;-74
2023/03/31 05:59:09;;;;;;;11.38;2.72;;;;;;;;;;4985604;28;20039;-68
2023/03/31 06:01:34;;;;;;;10.25;2.50;;;;;;;;;;4984020;28;20035;-75
2023/03/31 06:04:00;;;;;;;8.80;2.65;;;;;;;;;;4985252;28;20046;-72
2023/03/31 06:06:26;;;;;;;11.02;2.70;;;;;;;;;;4985130;28;20484;-75
2023/03/31 06:08:52;;;;;;;11.85;2.78;;;;;;;;;;4985080;28;20035;-75
2023/03/31 06:11:20;;;;;;;9.98;2.65;;;;;;;;;;4984566;28;20058;-73
2023/03/31 06:13:46;;;;;;;12.05;2.38;;;;;;;;;;4984646;28;20034;-72
2023/03/31 06:16:13;;;;;;;11.93;2.40;;;;;;;;;;4984995;28;20102;-74
2023/03/31 06:18:39;;;;;;;10.98;2.70;;;;;;;;;;4984942;28;20320;-75
2023/03/31 06:21:05;;;;;;;14.07;2.88;;;;;;;;;;4984623;28;20030;-73
2023/03/31 06:23:31;;;;;;;11.50;3.33;;;;;;;;;;4984450;28;20042;-76
2023/03/31 06:26:02;;;;;;;13.93;3.10;;;;;;;;;;4984587;28;20369;-75
2023/03/31 06:28:28;;;;;;;11.02;3.10;;;;;;;;;;4984617;28;20039;-75
2023/03/31 06:31:21;;;;;;;12.13;3.30;;;;;;;;;;4984618;28;20026;-70
2023/03/31 06:33:47;;;;;;;10.15;2.90;;;;;;;;;;4983243;28;20035;-71
2023/03/31 06:36:15;;;;;;;15.32;4.30;;;;;;;;;;4985014;28;20247;-75
2023/03/31 06:38:41;;;;;;;14.35;4.05;;;;;;;;;;4999496;28;20094;-76
2023/03/31 06:41:07;;;;;;;10.77;3.60;;;;;;;;;;4984514;28;20069;-76
2023/03/31 06:43:33;;;;;;;13.10;3.55;;;;;;;;;;4982829;28;20334;-76
2023/03/31 06:45:59;;;;;;;13.35;3.60;;;;;;;;;;4984390;28;20030;-72
2023/03/31 06:48:25;;;;;;;12.55;3.13;;;;;;;;;;4990434;28;20034;-76
2023/03/31 06:50:52;;;;;;;17.05;3.30;;;;;;;;;;4988217;28;20043;-74
2023/03/31 06:53:17;;;;;;;14.23;3.97;;;;;;;;;;4987566;28;20076;-71
2023/03/31 06:55:43;;;;;;;12.80;3.28;;;;;;;;;;4997644;28;20030;-76
2023/03/31 06:58:09;;;;;;;11.35;3.22;;;;;;;;;;5003699;28;20037;-73
2023/03/31 07:00:34;;;;;;;10.48;3.40;;;;;;;;;;5003474;28;20036;-75
2023/03/31 07:03:00;;;;;;;16.17;3.35;;;;;;;;;;5003510;28;20061;-75
2023/03/31 07:05:26;;;;;;;10.77;2.90;;;;;;;;;;4992900;28;20022;-77
2023/03/31 07:07:52;;;;;;;19.88;3.20;;;;;;;;;;5003451;28;20077;-75
2023/03/31 07:10:18;;;;;;;17.08;3.30;;;;;;;;;;5003456;28;20050;-73
2023/03/31 07:12:43;;;;;;;17.92;3.28;;;;;;;;;;5002410;28;20049;-72
2023/03/31 07:15:09;;;;;;;24.27;3.55;;;;;;;;;;5003415;28;20266;-71
2023/03/31 07:17:36;;;;;;;27.25;4.18;;;;;;;;;;4992602;28;20045;-75
2023/03/31 07:20:03;;;;;;;28.35;3.95;;;;;;;;;;5000840;28;20034;-72
2023/03/31 07:22:28;;;;;;;26.80;4.40;;;;;;;;;;4980832;28;20089;-75
2023/03/31 07:24:54;;;;;;;32.60;4.43;;;;;;;;;;4979719;28;20026;-75
2023/03/31 07:27:19;;;;;;;23.10;4.10;;;;;;;;;;4991173;28;20026;-75
2023/03/31 07:29:45;;;;;;;26.98;4.68;;;;;;;;;;4991565;28;20449;-74
2023/03/31 07:32:10;;;;;;;28.10;3.95;;;;;;;;;;4992284;28;20026;-76
2023/03/31 07:34:35;;;;;;;28.20;4.18;;;;;;;;;;4992618;28;20034;-76
2023/03/31 07:37:01;;;;;;;25.13;4.25;;;;;;;;;;5001279;28;20023;-73
2023/03/31 07:39:26;;;;;;;28.27;3.97;;;;;;;;;;4993290;28;20035;-76
2023/03/31 07:41:52;;;;;;;23.95;4.53;;;;;;;;;;4992386;28;20101;-77
2023/03/31 07:44:17;;;;;;;26.48;4.40;;;;;;;;;;4973404;28;20019;-76
2023/03/31 07:46:43;;;;;;;23.50;3.80;;;;;;;;;;4974027;28;20029;-74
2023/03/31 07:49:09;;;;;;;24.77;3.85;;;;;;;;;;4983403;28;20054;-75
2023/03/31 07:51:35;;;;;;;29.73;3.88;;;;;;;;;;4982619;28;20027;-77
2023/03/31 07:54:00;;;;;;;24.33;3.90;;;;;;;;;;5012289;28;20106;-77
2023/03/31 07:56:25;;;;;;;28.45;3.97;;;;;;;;;;4982304;28;20027;-81
2023/03/31 07:58:51;;;;;;;27.02;4.28;;;;;;;;;;4980451;28;20058;-77
2023/03/31 08:01:18;;;;;;;23.85;3.78;;;;;;;;;;4981481;28;20108;-81
2023/03/31 08:03:45;;;;;;;24.70;3.90;;;;;;;;;;4982350;28;20046;-77
2023/03/31 08:06:16;;;;;;;33.67;4.10;;;;;;;;;;4982471;28;20097;-81
2023/03/31 08:08:41;;;;;;;18.75;3.72;;;;;;;;;;4982976;28;20058;-79
2023/03/31 08:11:07;;;;;;;26.60;4.32;;;;;;;;;;4982487;28;20034;-76
2023/03/31 08:13:33;;;;;;;17.90;3.85;;;;;;;;;;4982415;28;20026;-74
2023/03/31 08:15:58;;;;;;;24.83;4.30;;;;;;;;;;4981415;28;20041;-72
2023/03/31 08:18:23;;;;;;;19.90;4.10;;;;;;;;;;4981847;28;20045;-75
2023/03/31 08:20:49;;;;;;;24.08;4.20;;;;;;;;;;4981499;28;20027;-73
2023/03/31 08:23:15;;;;;;;23.70;3.47;;;;;;;;;;4981082;28;20065;-75
2023/03/31 08:25:40;;;;;;;25.05;4.13;;;;;;;;;;4982335;28;20050;-74
2023/03/31 08:28:09;;;;;;;21.15;3.85;;;;;;;;;;4981449;28;20330;-75
2023/03/31 08:30:36;;;;;;;24.25;4.13;;;;;;;;;;4982137;28;20319;-76
2023/03/31 08:33:01;;;;;;;30.00;4.47;;;;;;;;;;4981459;28;20034;-75
2023/03/31 08:35:27;;;;;;;38.65;4.50;;;;;;;;;;4981232;28;20014;-76
2023/03/31 08:37:52;;;;;;;25.75;4.20;;;;;;;;;;4980615;28;20072;-75
2023/03/31 08:40:22;;;;;;;28.10;4.55;;;;;;;;;;4981607;28;20330;-74
2023/03/31 08:42:50;;;;;;;25.48;4.40;;;;;;;;;;4982190;28;20030;-76
2023/03/31 08:45:15;;;;;;;29.38;4.70;;;;;;;;;;4982755;28;20035;-73
2023/03/31 08:47:43;;;;;;;36.15;4.90;;;;;;;;;;4973989;28;20400;-73
2023/03/31 08:50:18;;;;;;;38.33;4.90;;;;;;;;;;4973144;28;20019;-72
2023/03/31 08:52:53;;;;;;;31.17;5.35;;;;;;;;;;4975267;28;20027;-72
2023/03/31 08:55:26;;;;;;;30.15;5.22;;;;;;;;;;4980455;28;20081;-78
2023/03/31 08:58:29;;;;;;;28.45;4.68;;;;;;;;;;4973119;28;20034;-73
2023/03/31 09:01:22;;;;;;;28.35;4.75;;;;;;;;;;4975594;28;20101;-75
2023/03/31 09:04:11;;;;;;;30.25;4.82;;;;;;;;;;4971100;28;20053;-72
2023/03/31 09:06:52;;;;;;;37.20;5.35;;;;;;;;;;4975488;28;20114;-70
2023/03/31 09:09:24;;;;;;;;;;;;;;;;;;4975550;28;20018;-66
2023/03/31 09:12:00;;;;;;;29.10;4.60;;;;;;;;;;4972891;28;19914;-69
2023/03/31 09:14:25;;;;;;;30.00;4.38;;;;;;;;;;4970932;28;20054;-67
2023/03/31 09:17:11;;;;;;;25.90;4.40;;;;;;;;;;4971353;28;20073;-67
2023/03/31 09:20:04;;;;;;;29.02;4.35;;;;;;;;;;4971660;28;20069;-66
2023/03/31 09:22:33;;;;;;;33.30;5.13;;;;;;;;;;4971451;28;20027;-67
2023/03/31 09:25:06;;;;;;;27.15;4.63;;;;;;;;;;4971779;28;20035;-69
2023/03/31 09:27:36;;;;;;;29.45;5.13;;;;;;;;;;4971456;28;20030;-67
2023/03/31 09:30:26;;;;;;;33.83;5.67;;;;;;;;;;4973490;28;20061;-69
2023/03/31 09:33:14;;;;;;;34.20;5.90;;;;;;;;;;4973332;28;20034;-70
2023/03/31 09:35:40;;;;;;;31.75;4.80;;;;;;;;;;4972860;28;20109;-70
2023/03/31 09:38:05;;;;;;;36.70;5.28;;;;;;;;;;4973149;28;20062;-68
2023/03/31 09:40:31;;;;;;;34.42;4.93;;;;;;;;;;4973118;28;20019;-67
2023/03/31 09:43:17;;;;;;;32.22;4.93;;;;;;;;;;4973083;28;20035;-68
2023/03/31 09:45:43;;;;;;;39.20;5.78;;;;;;;;;;4973374;28;20027;-68
2023/03/31 09:48:21;;;;;;;31.08;5.32;;;;;;;;;;4973282;28;20035;-66
2023/03/31 09:50:59;;;;;;;33.88;5.25;;;;;;;;;;4973375;28;20037;-69
2023/03/31 09:53:44;;;;;;;32.35;4.95;;;;;;;;;;4974324;28;20022;-67
2023/03/31 09:56:10;;;;;;;38.00;4.50;;;;;;;;;;4975791;28;20594;-68
2023/03/31 09:58:43;;;;;;;24.00;4.65;;;;;;;;;;4975216;28;20026;-67
2023/03/31 10:01:11;;;;;;;26.95;4.45;;;;;;;;;;4971762;28;20035;-67
2023/03/31 10:03:54;;;;;;;34.03;5.53;;;;;;;;;;4932563;28;1181497;-69
2023/03/31 10:06:22;;;;;;;29.52;4.63;;;;;;;;;;4974241;28;20058;-66
2023/03/31 10:08:55;;;;;;;37.28;5.35;;;;;;;;;;4974151;28;20023;-69
2023/03/31 10:11:21;;;;;;;39.20;5.05;;;;;;;;;;4974161;28;20025;-68
2023/03/31 10:13:51;;;;;;;34.65;5.80;;;;;;;;;;4973908;28;20089;-67
2023/03/31 10:16:26;;;;;;;26.65;4.80;;;;;;;;;;4973436;28;20118;-67
2023/03/31 10:18:52;;;;;;;27.17;4.82;;;;;;;;;;4973915;28;20097;-68
2023/03/31 10:21:22;;;;;;;27.88;5.03;;;;;;;;;;4973738;28;20070;-67
2023/03/31 10:23:50;;;;;;;27.83;5.55;;;;;;;;;;4972346;28;20034;-68
2023/03/31 10:26:19;;;;;;;31.48;5.10;;;;;;;;;;4973843;28;20042;-66
2023/03/31 10:28:48;;;;;;;28.98;4.72;;;;;;;;;;4973524;28;20038;-67
2023/03/31 10:31:14;;;;;;;37.47;4.72;;;;;;;;;;4973590;28;20501;-67
2023/03/31 10:33:46;;;;;;;31.90;4.95;;;;;;;;;;4973517;28;20023;-69
2023/03/31 10:36:27;;;;;;;30.05;4.68;;;;;;;;;;4973301;28;20023;-70
2023/03/31 10:38:53;;;;;;;24.90;4.57;;;;;;;;;;4973647;28;20015;-66
2023/03/31 10:41:25;;;;;;;26.08;4.63;;;;;;;;;;4973491;28;20409;-67
2023/03/31 10:43:58;;;;;;;34.50;4.97;;;;;;;;;;4973705;28;20027;-72
2023/03/31 10:46:41;;;;;;;29.35;5.18;;;;;;;;;;4973799;28;20494;-68
2023/03/31 10:49:21;;;;;;;23.13;4.47;;;;;;;;;;4973732;28;20030;-67
2023/03/31 10:51:49;;;;;;;26.73;4.10;;;;;;;;;;4973185;28;20043;-66
2023/03/31 10:54:15;;;;;;;33.72;5.40;;;;;;;;;;4973121;28;20063;-69
2023/03/31 10:56:50;;;;;;;25.15;4.50;;;;;;;;;;4973126;28;20066;-67
2023/03/31 10:59:36;;;;;;;31.05;4.93;;;;;;;;;;4973115;28;20031;-67
2023/03/31 11:02:30;;;;;;;29.88;5.57;;;;;;;;;;4973082;28;20037;-68
2023/03/31 11:05:14;;;;;;;26.45;5.18;;;;;;;;;;4972226;28;20097;-67
2023/03/31 11:07:51;;;;;;;29.25;5.25;;;;;;;;;;4972572;28;20046;-71
2023/03/31 11:10:38;;;;;;;29.92;5.65;;;;;;;;;;4972874;28;20042;-68
2023/03/31 11:13:32;;;;;;;27.25;6.93;;;;;;;;;;4972757;28;20031;-69
2023/03/31 11:16:22;;;;;;;28.95;7.18;;;;;;;;;;4972960;28;20023;-68
2023/03/31 11:19:02;;;;;;;36.28;7.50;;;;;;;;;;4972802;28;20447;-71
2023/03/31 11:21:46;;;;;;;23.52;6.50;;;;;;;;;;4972779;28;20034;-66
2023/03/31 11:24:34;;;;;;;30.13;6.30;;;;;;;;;;4972516;28;20114;-66
2023/03/31 11:27:30;;;;;;;29.63;6.15;;;;;;;;;;4971790;28;20027;-68
2023/03/31 11:29:58;;;;;;;26.75;5.85;;;;;;;;;;4972646;28;20039;-69
2023/03/31 11:32:41;;;;;;;34.35;6.53;;;;;;;;;;4972576;28;20031;-68
2023/03/31 11:35:15;;;;;;;29.25;6.90;;;;;;;;;;4972563;28;20638;-67
2023/03/31 11:38:14;;;;;;;25.67;6.55;;;;;;;;;;4972407;28;20031;-67
2023/03/31 11:41:03;;;;;;;29.02;6.50;;;;;;;;;;4952987;28;20031;-71
2023/03/31 11:43:43;;;;;;;26.95;6.32;;;;;;;;;;4972084;28;20030;-67
2023/03/31 11:46:36;;;;;;;24.58;7.05;;;;;;;;;;4972203;28;20022;-68
2023/03/31 11:49:07;;;;;;;28.08;7.13;;;;;;;;;;4972394;28;20516;-69
2023/03/31 11:51:41;;;;;;;30.05;6.93;;;;;;;;;;4972035;28;20035;-69
2023/03/31 11:54:15;;;;;;;29.75;7.25;;;;;;;;;;4971975;28;20031;-67
2023/03/31 11:56:40;;;;;;;30.15;6.93;;;;;;;;;;4972191;28;20030;-74
2023/03/31 11:59:11;;;;;;;32.22;6.68;;;;;;;;;;4971874;28;20037;-75
2023/03/31 12:01:45;;;;;;;23.58;5.65;;;;;;;;;;4971937;28;20027;-74
2023/03/31 12:04:25;;;;;;;25.75;5.43;;;;;;;;;;4971570;28;20058;-72
2023/03/31 12:06:51;;;;;;;29.73;5.78;;;;;;;;;;4971862;28;20051;-73
2023/03/31 12:09:35;;;;;;;27.15;5.50;;;;;;;;;;4971967;28;20051;-74
2023/03/31 12:12:06;;;;;;;22.08;5.45;;;;;;;;;;4971981;28;20027;-70
2023/03/31 12:14:56;;;;;;;23.92;5.95;;;;;;;;;;4971654;28;20039;-67
2023/03/31 12:17:26;;;;;;;26.40;4.95;;;;;;;;;;4971713;28;20062;-69
2023/03/31 12:20:06;;;;;;;24.75;5.47;;;;;;;;;;4971756;28;20034;-68
2023/03/31 12:22:52;;;;;;;23.83;5.05;;;;;;;;;;4971734;28;20037;-66
2023/03/31 12:25:26;;;;;;;24.48;4.55;;;;;;;;;;4971547;28;20027;-68
2023/03/31 12:27:53;;;;;;;24.50;4.78;;;;;;;;;;4971565;28;20031;-66
2023/03/31 12:30:36;;;;;;;21.15;4.25;;;;;;;;;;4971629;28;20529;-70
2023/03/31 12:33:19;;;;;;;19.52;3.92;;;;;;;;;;4971467;28;20058;-67
2023/03/31 12:36:05;;;;;;;19.25;3.97;;;;;;;;;;4971616;28;20058;-67
2023/03/31 12:38:39;;;;;;;19.77;4.15;;;;;;;;;;4971546;28;20034;-68
2023/03/31 12:41:26;;;;;;;17.63;3.47;;;;;;;;;;4971751;28;20086;-67
2023/03/31 12:44:24;;;;;;;18.17;4.10;;;;;;;;;;4974062;28;20089;-69
2023/03/31 12:46:55;;;;;;;21.85;4.18;;;;;;;;;;4974723;28;20030;-67
2023/03/31 12:49:59;;;;;;;24.40;4.53;;;;;;;;;;4972027;28;20034;-70
2023/03/31 12:52:57;;;;;;;25.27;4.80;;;;;;;;;;4970120;28;20097;-66
2023/03/31 12:55:43;;;;;;;16.98;3.95;;;;;;;;;;4959844;28;20049;-67
2023/03/31 12:58:23;;;;;;;28.42;4.75;;;;;;;;;;4971396;28;20537;-66
2023/03/31 13:01:03;;;;;;;;;;;;;;;;;;4971797;28;20505;-67
2023/03/31 13:03:40;;;;;;;23.97;3.93;;;;;;;;;;4971267;28;19926;-67
2023/03/31 13:06:10;;;;;;;25.02;4.55;;;;;;;;;;4970917;28;20573;-67
2023/03/31 13:09:25;;;;;;;23.77;4.00;;;;;;;;;;4971241;28;20034;-68
2023/03/31 13:11:50;;;;;;;23.73;4.32;;;;;;;;;;4970758;28;20028;-67
2023/03/31 13:14:25;;;;;;;21.15;4.43;;;;;;;;;;4971193;28;20033;-66
2023/03/31 13:16:55;;;;;;;20.00;4.13;;;;;;;;;;4971082;28;20106;-67
2023/03/31 13:19:36;;;;;;;18.80;3.40;;;;;;;;;;4971025;28;20042;-66
2023/03/31 13:22:04;;;;;;;23.45;4.50;;;;;;;;;;4970845;28;20022;-70
2023/03/31 13:24:32;;;;;;;24.23;4.88;;;;;;;;;;4970934;28;20111;-67
2023/03/31 13:27:18;;;;;;;21.35;4.00;;;;;;;;;;4970880;28;20037;-67
2023/03/31 13:29:44;;;;;;;22.13;4.18;;;;;;;;;;4970595;28;20042;-67
2023/03/31 13:32:24;;;;;;;21.50;3.83;;;;;;;;;;4970871;28;20031;-68
2023/03/31 13:34:53;;;;;;;23.17;3.60;;;;;;;;;;4971220;28;20026;-67
2023/03/31 13:37:28;;;;;;;26.67;4.38;;;;;;;;;;4970881;28;20023;-68
2023/03/31 13:40:12;;;;;;;22.02;4.20;;;;;;;;;;4970715;28;20624;-66
2023/03/31 13:43:08;;;;;;;25.20;5.18;;;;;;;;;;4970875;28;20510;-68
2023/03/31 13:46:01;;;;;;;23.80;4.38;;;;;;;;;;4970785;28;20019;-67
2023/03/31 13:48:32;;;;;;;22.77;4.47;;;;;;;;;;4970813;28;20038;-70
2023/03/31 13:51:16;;;;;;;21.13;4.32;;;;;;;;;;4971948;28;20089;-71
2023/03/31 13:53:48;;;;;;;22.95;4.32;;;;;;;;;;4974518;28;20479;-67
2023/03/31 13:56:35;;;;;;;25.45;3.90;;;;;;;;;;4973228;28;20525;-66
2023/03/31 13:59:12;;;;;;;21.90;3.88;;;;;;;;;;4974064;28;20022;-71
2023/03/31 14:01:40;;;;;;;20.00;3.42;;;;;;;;;;4974168;28;20085;-66
2023/03/31 14:04:32;;;;;;;19.88;3.40;;;;;;;;;;4973735;28;20050;-68
2023/03/31 14:07:06;;;;;;;22.05;3.80;;;;;;;;;;4973967;28;20506;-66
2023/03/31 14:09:33;;;;;;;19.60;3.40;;;;;;;;;;4973985;28;20046;-66
2023/03/31 14:12:00;;;;;;;18.67;3.63;;;;;;;;;;4974245;28;20055;-68
2023/03/31 14:14:28;;;;;;;17.95;3.10;;;;;;;;;;4974007;28;20372;-67
2023/03/31 14:17:00;;;;;;;15.02;2.88;;;;;;;;;;4974383;28;20422;-67
2023/03/31 14:19:48;;;;;;;14.43;2.83;;;;;;;;;;4973622;28;20141;-69
2023/03/31 14:22:56;;;;;;;25.02;3.40;;;;;;;;;;4973677;28;20094;-68
2023/03/31 14:25:49;;;;;;;15.48;2.70;;;;;;;;;;4973880;28;20053;-68
2023/03/31 14:28:20;;;;;;;22.08;2.97;;;;;;;;;;4973821;28;20073;-66
2023/03/31 14:31:11;;;;;;;18.60;2.88;;;;;;;;;;4972219;28;20113;-67
2023/03/31 14:33:45;;;;;;;;;;;;;;;;;;4971522;28;20538;-66
2023/03/31 14:36:36;;;;;;;22.45;2.92;;;;;;;;;;4973576;28;19914;-69
2023/03/31 14:39:05;;;;;;;20.58;3.08;;;;;;;;;;4973361;28;20038;-69
2023/03/31 14:41:31;;;;;;;20.27;2.65;;;;;;;;;;4973471;28;20034;-69
2023/03/31 14:44:01;;;;;;;12.68;2.17;;;;;;;;;;4972193;28;20081;-69
2023/03/31 14:46:31;;;;;;;16.33;2.87;;;;;;;;;;4973325;28;20027;-67
2023/03/31 14:48:57;;;;;;;12.93;2.47;;;;;;;;;;4973315;28;20263;-66
2023/03/31 14:51:29;;;;;;;14.88;2.20;;;;;;;;;;4973270;28;20031;-68
2023/03/31 14:53:56;;;;;;;14.95;2.60;;;;;;;;;;4973204;28;20030;-67
2023/03/31 14:56:47;;;;;;;21.48;2.83;;;;;;;;;;4973189;28;20122;-66
2023/03/31 14:59:19;;;;;;;15.95;2.60;;;;;;;;;;4972988;28;20403;-68
2023/03/31 15:01:47;;;;;;;22.92;3.10;;;;;;;;;;4974605;28;20105;-67
2023/03/31 15:04:16;;;;;;;17.48;2.75;;;;;;;;;;4973564;28;20057;-69
2023/03/31 15:06:45;;;;;;;18.15;2.70;;;;;;;;;;4975171;28;20505;-68